createdAt,value
2022-10-06T00:00:00.300Z,888.2
2022-10-06T00:01:00.344Z,888.2
2022-10-06T00:02:00.571Z,888.2
2022-10-06T00:03:00.420Z,888.2
2022-10-06T00:04:00.293Z,888.2
2022-10-06T00:05:00.521Z,888.3
2022-10-06T00:06:00.499Z,888.3
2022-10-06T00:07:00.305Z,888.3
2022-10-06T00:08:00.750Z,888.3
2022-10-06T00:09:00.296Z,888.3
2022-10-06T00:10:00.308Z,888.3
2022-10-06T00:11:00.279Z,888.3
2022-10-06T00:12:00.367Z,888.3
2022-10-06T00:13:00.316Z,888.3
2022-10-06T00:14:00.400Z,888.3
2022-10-06T00:15:00.351Z,888.3
2022-10-06T00:16:00.420Z,888.3
2022-10-06T00:17:00.295Z,888.3
2022-10-06T00:18:00.324Z,888.3
2022-10-06T00:19:00.333Z,888.3
2022-10-06T00:20:00.431Z,888.3
2022-10-06T00:21:00.465Z,888.3
2022-10-06T00:22:00.707Z,888.3
2022-10-06T00:23:00.321Z,888.3
2022-10-06T00:24:00.335Z,888.3
2022-10-06T00:25:00.343Z,888.3
2022-10-06T00:26:00.451Z,888.3
2022-10-06T00:27:00.325Z,888.3
2022-10-06T00:28:00.342Z,888.3
2022-10-06T00:29:00.294Z,888.3
2022-10-06T00:30:00.298Z,888.3
2022-10-06T00:31:00.374Z,888.2
2022-10-06T00:32:00.545Z,888.3
2022-10-06T00:33:00.309Z,888.2
2022-10-06T00:34:00.298Z,888.2
2022-10-06T00:35:00.339Z,888.2
2022-10-06T00:36:00.444Z,888.3
2022-10-06T00:37:00.335Z,888.2
2022-10-06T00:38:00.376Z,888.2
2022-10-06T00:39:00.309Z,888.2
2022-10-06T00:40:00.327Z,888.2
2022-10-06T00:41:00.296Z,888.2
2022-10-06T00:42:00.355Z,888.2
2022-10-06T00:43:00.276Z,888.1
2022-10-06T00:44:00.438Z,888.2
2022-10-06T00:45:00.304Z,888.2
2022-10-06T00:46:00.372Z,888.2
2022-10-06T00:47:00.305Z,888.2
2022-10-06T00:48:00.279Z,888.2
2022-10-06T00:49:00.306Z,888.2
2022-10-06T00:50:00.442Z,888.1
2022-10-06T00:51:00.519Z,888.2
2022-10-06T00:52:00.434Z,888.2
2022-10-06T00:53:00.277Z,888.1
2022-10-06T00:54:00.289Z,888.1
2022-10-06T00:55:00.307Z,888.2
2022-10-06T00:56:00.404Z,888.1
2022-10-06T00:57:00.289Z,888.1
2022-10-06T00:58:00.295Z,888.1
2022-10-06T00:59:00.277Z,888.1
2022-10-06T01:00:00.290Z,888.0
2022-10-06T01:01:00.316Z,888.1
2022-10-06T01:02:00.458Z,888.0
2022-10-06T01:03:00.407Z,888.1
2022-10-06T01:04:00.273Z,888.1
2022-10-06T01:05:00.303Z,888.1
2022-10-06T01:06:00.288Z,888.1
2022-10-06T01:07:00.450Z,888.1
2022-10-06T01:08:00.555Z,888.1
2022-10-06T01:09:00.305Z,888.1
2022-10-06T01:10:00.307Z,888.1
2022-10-06T01:11:00.359Z,888.0
2022-10-06T01:12:00.393Z,888.0
2022-10-06T01:13:00.280Z,888.1
2022-10-06T01:14:00.460Z,888.0
2022-10-06T01:15:00.356Z,888.0
2022-10-06T01:16:00.483Z,888.0
2022-10-06T01:17:00.394Z,888.0
2022-10-06T01:18:00.291Z,888.0
2022-10-06T01:19:00.314Z,887.9
2022-10-06T01:20:00.441Z,887.9
2022-10-06T01:21:00.280Z,887.9
2022-10-06T01:22:00.311Z,887.9
2022-10-06T01:23:00.389Z,887.9
2022-10-06T01:24:00.422Z,887.9
2022-10-06T01:25:00.359Z,887.9
2022-10-06T01:26:00.412Z,887.8
2022-10-06T01:27:00.308Z,887.8
2022-10-06T01:28:00.350Z,887.9
2022-10-06T01:29:00.289Z,887.8
2022-10-06T01:30:00.310Z,887.8
2022-10-06T01:31:00.323Z,887.8
2022-10-06T01:32:00.485Z,887.9
2022-10-06T01:33:00.308Z,887.9
2022-10-06T01:34:00.299Z,887.8
2022-10-06T01:35:00.310Z,887.8
2022-10-06T01:36:00.327Z,887.8
2022-10-06T01:37:00.316Z,887.9
2022-10-06T01:38:00.424Z,887.9
2022-10-06T01:39:00.403Z,887.9
2022-10-06T01:40:00.352Z,887.9
2022-10-06T01:41:00.277Z,887.9
2022-10-06T01:42:00.304Z,888.0
2022-10-06T01:43:00.294Z,887.9
2022-10-06T01:44:00.443Z,887.9
2022-10-06T01:45:00.274Z,887.9
2022-10-06T01:46:00.307Z,887.9
2022-10-06T01:47:00.297Z,887.9
2022-10-06T01:48:00.306Z,887.9
2022-10-06T01:49:00.282Z,887.9
2022-10-06T01:50:00.455Z,888.0
2022-10-06T01:51:00.303Z,888.0
2022-10-06T01:52:00.316Z,888.0
2022-10-06T01:53:00.281Z,888.0
2022-10-06T01:54:00.506Z,888.0
2022-10-06T01:55:00.298Z,888.0
2022-10-06T01:56:00.411Z,888.0
2022-10-06T01:57:00.308Z,888.0
2022-10-06T01:58:00.298Z,888.0
2022-10-06T01:59:00.286Z,888.0
2022-10-06T02:00:00.346Z,888.0
2022-10-06T02:01:00.279Z,888.0
2022-10-06T02:02:00.546Z,888.0
2022-10-06T02:03:00.314Z,888.0
2022-10-06T02:04:00.359Z,888.0
2022-10-06T02:05:00.291Z,888.1
2022-10-06T02:06:00.366Z,888.0
2022-10-06T02:07:00.302Z,888.0
2022-10-06T02:08:00.439Z,888.0
2022-10-06T02:09:00.453Z,888.1
2022-10-06T02:10:00.364Z,888.1
2022-10-06T02:11:00.291Z,888.1
2022-10-06T02:12:00.383Z,888.1
2022-10-06T02:13:00.304Z,888.1
2022-10-06T02:14:00.524Z,888.1
2022-10-06T02:15:00.340Z,888.1
2022-10-06T02:16:00.430Z,888.1
2022-10-06T02:17:00.372Z,888.0
2022-10-06T02:18:00.279Z,888.1
2022-10-06T02:19:00.329Z,888.0
2022-10-06T02:20:00.428Z,888.1
2022-10-06T02:21:00.361Z,888.1
2022-10-06T02:22:00.288Z,888.1
2022-10-06T02:23:00.320Z,888.1
2022-10-06T02:24:00.332Z,888.1
2022-10-06T02:25:00.340Z,888.1
2022-10-06T02:26:00.602Z,888.1
2022-10-06T02:27:00.315Z,888.1
2022-10-06T02:28:00.335Z,888.1
2022-10-06T02:29:00.295Z,888.1
2022-10-06T02:30:00.299Z,888.1
2022-10-06T02:31:00.362Z,888.1
2022-10-06T02:32:00.486Z,888.2
2022-10-06T02:33:00.303Z,888.2
2022-10-06T02:34:00.314Z,888.2
2022-10-06T02:35:00.296Z,888.2
2022-10-06T02:36:00.298Z,888.2
2022-10-06T02:37:00.304Z,888.2
2022-10-06T02:38:00.523Z,888.2
2022-10-06T02:39:00.395Z,888.2
2022-10-06T02:40:00.320Z,888.2
2022-10-06T02:41:00.310Z,888.2
2022-10-06T02:42:00.296Z,888.3
2022-10-06T02:43:00.305Z,888.3
2022-10-06T02:44:00.398Z,888.3
2022-10-06T02:45:00.304Z,888.3
2022-10-06T02:46:00.276Z,888.3
2022-10-06T02:47:00.283Z,888.3
2022-10-06T02:48:00.301Z,888.3
2022-10-06T02:49:00.296Z,888.4
2022-10-06T02:50:00.503Z,888.4
2022-10-06T02:51:00.300Z,888.4
2022-10-06T02:52:00.290Z,888.4
2022-10-06T02:53:00.306Z,888.4
2022-10-06T02:54:00.419Z,888.4
2022-10-06T02:55:00.279Z,888.4
2022-10-06T02:56:00.391Z,888.4
2022-10-06T02:57:00.303Z,888.4
2022-10-06T02:58:00.300Z,888.4
2022-10-06T02:59:00.277Z,888.4
2022-10-06T03:00:00.302Z,888.4
2022-10-06T03:01:00.293Z,888.4
2022-10-06T03:02:00.583Z,888.5
2022-10-06T03:03:00.336Z,888.4
2022-10-06T03:04:00.271Z,888.4
2022-10-06T03:05:00.313Z,888.4
2022-10-06T03:06:00.289Z,888.4
2022-10-06T03:07:00.307Z,888.5
2022-10-06T03:08:00.537Z,888.5
2022-10-06T03:09:00.457Z,888.5
2022-10-06T03:10:00.393Z,888.5
2022-10-06T03:11:00.295Z,888.5
2022-10-06T03:12:00.293Z,888.6
2022-10-06T03:13:00.318Z,888.6
2022-10-06T03:14:00.406Z,888.6
2022-10-06T03:15:00.355Z,888.6
2022-10-06T03:16:00.460Z,888.6
2022-10-06T03:17:00.304Z,888.6
2022-10-06T03:18:00.287Z,888.6
2022-10-06T03:19:00.278Z,888.6
2022-10-06T03:20:00.526Z,888.5
2022-10-06T03:21:00.396Z,888.5
2022-10-06T03:22:00.343Z,888.5
2022-10-06T03:23:00.366Z,888.5
2022-10-06T03:24:00.291Z,888.6
2022-10-06T03:25:00.471Z,888.5
2022-10-06T03:26:00.445Z,888.6
2022-10-06T03:27:00.304Z,888.6
2022-10-06T03:28:00.366Z,888.6
2022-10-06T03:29:00.289Z,888.6
2022-10-06T03:30:00.297Z,888.6
2022-10-06T03:31:00.306Z,888.6
2022-10-06T03:32:00.568Z,888.6
2022-10-06T03:33:00.284Z,888.7
2022-10-06T03:34:00.279Z,888.7
2022-10-06T03:35:00.309Z,888.7
2022-10-06T03:36:00.301Z,888.7
2022-10-06T03:37:00.280Z,888.6
2022-10-06T03:38:00.388Z,888.6
2022-10-06T03:39:00.308Z,888.6
2022-10-06T03:40:00.292Z,888.6
2022-10-06T03:41:00.529Z,888.6
2022-10-06T03:42:00.284Z,888.6
2022-10-06T03:43:00.272Z,888.7
2022-10-06T03:44:00.405Z,888.7
2022-10-06T03:45:00.327Z,888.7
2022-10-06T03:46:00.286Z,888.7
2022-10-06T03:47:00.338Z,888.7
2022-10-06T03:48:00.296Z,888.7
2022-10-06T03:49:00.295Z,888.7
2022-10-06T03:50:00.461Z,888.7
2022-10-06T03:51:00.307Z,888.7
2022-10-06T03:52:00.290Z,888.7
2022-10-06T03:53:00.305Z,888.8
2022-10-06T03:54:00.282Z,888.8
2022-10-06T03:55:00.311Z,888.8
2022-10-06T03:56:00.437Z,888.7
2022-10-06T03:57:00.310Z,888.8
2022-10-06T03:58:00.296Z,888.8
2022-10-06T03:59:00.308Z,888.8
2022-10-06T04:00:00.306Z,888.8
2022-10-06T04:01:00.352Z,888.8
2022-10-06T04:02:00.508Z,888.8
2022-10-06T04:03:00.359Z,888.8
2022-10-06T04:04:00.298Z,888.7
2022-10-06T04:05:00.315Z,888.8
2022-10-06T04:06:00.298Z,888.7
2022-10-06T04:07:00.349Z,888.7
2022-10-06T04:08:00.420Z,888.7
2022-10-06T04:09:00.331Z,888.7
2022-10-06T04:10:00.378Z,888.7
2022-10-06T04:11:00.560Z,888.8
2022-10-06T04:12:00.390Z,888.8
2022-10-06T04:13:00.299Z,888.7
2022-10-06T04:14:00.546Z,888.8
2022-10-06T04:15:00.522Z,888.8
2022-10-06T04:16:00.386Z,888.7
2022-10-06T04:17:00.299Z,888.7
2022-10-06T04:18:00.364Z,888.7
2022-10-06T04:19:00.291Z,888.7
2022-10-06T04:20:00.488Z,888.7
2022-10-06T04:21:00.290Z,888.7
2022-10-06T04:22:00.302Z,888.8
2022-10-06T04:23:00.380Z,888.8
2022-10-06T04:24:00.306Z,888.8
2022-10-06T04:25:00.417Z,888.8
2022-10-06T04:26:00.510Z,888.8
2022-10-06T04:27:00.537Z,888.8
2022-10-06T04:28:00.322Z,888.8
2022-10-06T04:29:00.307Z,888.8
2022-10-06T04:30:00.303Z,888.8
2022-10-06T04:31:00.289Z,888.9
2022-10-06T04:32:00.587Z,888.8
2022-10-06T04:33:00.298Z,888.9
2022-10-06T04:34:00.304Z,888.9
2022-10-06T04:35:00.278Z,888.9
2022-10-06T04:36:00.310Z,888.9
2022-10-06T04:37:00.307Z,888.9
2022-10-06T04:38:00.457Z,888.9
2022-10-06T04:39:00.328Z,888.9
2022-10-06T04:40:00.272Z,888.9
2022-10-06T04:41:00.312Z,888.9
2022-10-06T04:42:00.493Z,888.9
2022-10-06T04:43:00.311Z,888.9
2022-10-06T04:44:00.419Z,889.0
2022-10-06T04:45:00.277Z,889.0
2022-10-06T04:46:00.362Z,889.0
2022-10-06T04:47:00.388Z,889.1
2022-10-06T04:48:00.271Z,889.0
2022-10-06T04:49:00.278Z,889.1
2022-10-06T04:50:00.469Z,889.1
2022-10-06T04:51:00.289Z,889.1
2022-10-06T04:52:00.279Z,889.1
2022-10-06T04:53:00.296Z,889.1
2022-10-06T04:54:00.294Z,889.0
2022-10-06T04:55:00.324Z,889.1
2022-10-06T04:56:00.404Z,889.1
2022-10-06T04:57:00.355Z,889.0
2022-10-06T04:58:00.319Z,889.0
2022-10-06T04:59:00.298Z,889.1
2022-10-06T05:00:05.467Z,889.1
2022-10-06T05:01:00.335Z,889.1
2022-10-06T05:02:00.437Z,889.1
2022-10-06T05:03:00.291Z,889.1
2022-10-06T05:04:00.302Z,889.1
2022-10-06T05:05:00.337Z,889.1
2022-10-06T05:06:00.326Z,889.1
2022-10-06T05:07:00.427Z,889.1
2022-10-06T05:08:00.587Z,889.1
2022-10-06T05:09:00.357Z,889.1
2022-10-06T05:10:00.318Z,889.1
2022-10-06T05:11:00.325Z,889.1
2022-10-06T05:12:00.423Z,889.1
2022-10-06T05:13:00.365Z,889.1
2022-10-06T05:14:00.343Z,889.1
2022-10-06T05:15:00.257Z,889.1
2022-10-06T05:16:00.357Z,889.1
2022-10-06T05:17:00.341Z,889.1
2022-10-06T05:18:00.247Z,889.1
2022-10-06T05:19:00.306Z,889.2
2022-10-06T05:20:00.413Z,889.2
2022-10-06T05:21:03.233Z,889.2
2022-10-06T05:22:00.262Z,889.2
2022-10-06T05:23:00.260Z,889.2
2022-10-06T05:24:00.258Z,889.1
2022-10-06T05:25:00.263Z,889.1
2022-10-06T05:26:00.428Z,889.1
2022-10-06T05:27:01.859Z,889.0
2022-10-06T05:28:00.440Z,889.1
2022-10-06T05:29:00.239Z,889.0
2022-10-06T05:30:00.266Z,889.1
2022-10-06T05:31:00.268Z,889.0
2022-10-06T05:32:00.446Z,889.0
2022-10-06T05:33:00.265Z,889.0
2022-10-06T05:34:00.263Z,889.0
2022-10-06T05:35:00.242Z,889.0
2022-10-06T05:36:00.245Z,889.0
2022-10-06T05:37:00.271Z,889.0
2022-10-06T05:38:00.388Z,889.0
2022-10-06T05:39:00.272Z,889.1
2022-10-06T05:40:00.265Z,889.0
2022-10-06T05:41:00.263Z,889.0
2022-10-06T05:42:00.239Z,889.0
2022-10-06T05:43:00.290Z,889.0
2022-10-06T05:44:00.504Z,889.0
2022-10-06T05:45:00.270Z,889.0
2022-10-06T05:46:00.357Z,889.1
2022-10-06T05:47:00.302Z,889.1
2022-10-06T05:48:00.267Z,889.1
2022-10-06T05:49:00.260Z,889.1
2022-10-06T05:50:00.394Z,889.0
2022-10-06T05:51:00.260Z,889.1
2022-10-06T05:52:00.281Z,889.1
2022-10-06T05:53:00.301Z,889.1
2022-10-06T05:54:00.288Z,889.1
2022-10-06T05:55:00.292Z,889.1
2022-10-06T05:56:00.512Z,889.1
2022-10-06T05:57:00.357Z,889.2
2022-10-06T05:58:00.295Z,889.2
2022-10-06T05:59:00.523Z,889.2
2022-10-06T06:00:00.280Z,889.2
2022-10-06T06:01:00.272Z,889.2
2022-10-06T06:02:00.682Z,889.2
2022-10-06T06:03:00.450Z,889.2
2022-10-06T06:04:00.306Z,889.2
2022-10-06T06:05:00.312Z,889.2
2022-10-06T06:06:00.328Z,889.3
2022-10-06T06:07:00.312Z,889.3
2022-10-06T06:08:00.453Z,889.3
2022-10-06T06:09:00.287Z,889.2
2022-10-06T06:10:00.290Z,889.2
2022-10-06T06:11:00.311Z,889.2
2022-10-06T06:12:00.491Z,889.3
2022-10-06T06:13:00.325Z,889.3
2022-10-06T06:14:00.472Z,889.3
2022-10-06T06:15:00.397Z,889.3
2022-10-06T06:16:00.294Z,889.3
2022-10-06T06:17:00.433Z,889.2
2022-10-06T06:18:00.369Z,889.2
2022-10-06T06:19:00.318Z,889.3
2022-10-06T06:20:00.466Z,889.3
2022-10-06T06:21:00.303Z,889.3
2022-10-06T06:22:00.301Z,889.3
2022-10-06T06:23:00.310Z,889.3
2022-10-06T06:24:00.302Z,889.3
2022-10-06T06:25:00.306Z,889.3
2022-10-06T06:26:02.474Z,889.3
2022-10-06T06:27:00.324Z,889.3
2022-10-06T06:28:00.370Z,889.3
2022-10-06T06:29:00.538Z,889.3
2022-10-06T06:30:00.297Z,889.3
2022-10-06T06:31:00.375Z,889.3
2022-10-06T06:32:00.380Z,889.3
2022-10-06T06:33:00.312Z,889.2
2022-10-06T06:34:00.305Z,889.2
2022-10-06T06:35:00.282Z,889.2
2022-10-06T06:36:00.290Z,889.1
2022-10-06T06:37:06.760Z,889.1
2022-10-06T06:38:00.468Z,889.1
2022-10-06T06:39:00.298Z,889.1
2022-10-06T06:40:00.301Z,889.1
2022-10-06T06:41:00.321Z,889.1
2022-10-06T06:42:00.298Z,889.2
2022-10-06T06:43:00.293Z,889.1
2022-10-06T06:44:00.550Z,889.1
2022-10-06T06:45:00.383Z,889.1
2022-10-06T06:46:00.416Z,889.1
2022-10-06T06:47:00.319Z,889.1
2022-10-06T06:48:00.302Z,889.1
2022-10-06T06:49:00.313Z,889.1
2022-10-06T06:50:00.480Z,889.1
2022-10-06T06:51:00.307Z,889.0
2022-10-06T06:52:00.294Z,889.0
2022-10-06T06:53:00.312Z,889.0
2022-10-06T06:54:00.294Z,889.0
2022-10-06T06:55:00.306Z,889.0
2022-10-06T06:56:00.442Z,888.9
2022-10-06T06:57:00.398Z,889.0
2022-10-06T06:58:00.323Z,888.9
2022-10-06T06:59:00.340Z,888.9
2022-10-06T07:00:00.450Z,888.9
2022-10-06T07:01:00.368Z,888.9
2022-10-06T07:02:00.450Z,888.9
2022-10-06T07:03:00.314Z,888.9
2022-10-06T07:04:00.292Z,888.9
2022-10-06T07:05:00.288Z,888.9
2022-10-06T07:06:00.286Z,888.9
2022-10-06T07:07:00.315Z,888.8
2022-10-06T07:08:00.464Z,888.8
2022-10-06T07:09:00.290Z,888.8
2022-10-06T07:10:00.359Z,888.8
2022-10-06T07:11:00.364Z,888.8
2022-10-06T07:12:00.310Z,888.7
2022-10-06T07:13:00.384Z,888.8
2022-10-06T07:14:00.436Z,888.7
2022-10-06T07:15:00.391Z,888.7
2022-10-06T07:16:00.325Z,888.7
2022-10-06T07:17:00.447Z,888.7
2022-10-06T07:18:00.303Z,888.7
2022-10-06T07:19:00.314Z,888.7
2022-10-06T07:20:00.434Z,888.6
2022-10-06T07:21:00.296Z,888.6
2022-10-06T07:22:00.307Z,888.6
2022-10-06T07:23:00.298Z,888.6
2022-10-06T07:24:00.318Z,888.6
2022-10-06T07:25:00.324Z,888.6
2022-10-06T07:26:00.441Z,888.6
2022-10-06T07:27:00.298Z,888.5
2022-10-06T07:28:00.360Z,888.6
2022-10-06T07:29:00.289Z,888.5
2022-10-06T07:30:00.451Z,888.5
2022-10-06T07:31:00.375Z,888.5
2022-10-06T07:32:00.381Z,888.5
2022-10-06T07:33:00.300Z,888.4
2022-10-06T07:34:00.286Z,888.4
2022-10-06T07:35:00.311Z,888.5
2022-10-06T07:36:00.312Z,888.4
2022-10-06T07:37:04.078Z,888.4
2022-10-06T07:38:00.517Z,888.4
2022-10-06T07:39:00.327Z,888.4
2022-10-06T07:40:00.307Z,888.4
2022-10-06T07:41:18.826Z,888.4
2022-10-06T07:42:00.287Z,888.4
2022-10-06T07:43:00.318Z,888.4
2022-10-06T07:44:04.580Z,888.3
2022-10-06T07:45:00.568Z,888.3
2022-10-06T07:46:00.334Z,888.3
2022-10-06T07:47:00.320Z,888.3
2022-10-06T07:48:00.285Z,888.3
2022-10-06T07:49:00.328Z,888.3
2022-10-06T07:50:00.552Z,888.3
2022-10-06T07:51:00.312Z,888.3
2022-10-06T07:52:00.290Z,888.2
2022-10-06T07:53:00.314Z,888.2
2022-10-06T07:54:00.278Z,888.2
2022-10-06T07:55:00.300Z,888.2
2022-10-06T07:56:00.408Z,888.2
2022-10-06T07:57:00.306Z,888.2
2022-10-06T07:58:00.298Z,888.2
2022-10-06T07:59:00.357Z,888.2
2022-10-06T08:00:03.185Z,888.2
2022-10-06T08:01:00.374Z,888.2
2022-10-06T08:02:00.598Z,888.1
2022-10-06T08:03:00.389Z,888.1
2022-10-06T08:04:00.349Z,888.1
2022-10-06T08:05:00.309Z,888.1
2022-10-06T08:06:00.314Z,888.1
2022-10-06T08:07:00.293Z,888.1
2022-10-06T08:08:00.514Z,888.1
2022-10-06T08:09:00.366Z,888.1
2022-10-06T08:10:00.301Z,888.1
2022-10-06T08:11:01.804Z,888.1
2022-10-06T08:12:00.369Z,888.1
2022-10-06T08:13:00.306Z,888.1
2022-10-06T08:14:00.657Z,888.1
2022-10-06T08:15:04.511Z,888.0
2022-10-06T08:16:00.471Z,888.1
2022-10-06T08:17:00.295Z,888.1
2022-10-06T08:18:00.297Z,888.1
2022-10-06T08:19:01.316Z,888.0
2022-10-06T08:20:00.524Z,888.0
2022-10-06T08:21:00.298Z,888.0
2022-10-06T08:22:04.722Z,888.0
2022-10-06T08:23:00.300Z,888.0
2022-10-06T08:24:00.304Z,888.0
2022-10-06T08:25:06.643Z,888.0
2022-10-06T08:26:00.553Z,888.0
2022-10-06T08:27:00.313Z,888.0
2022-10-06T08:28:00.341Z,888.0
2022-10-06T08:29:00.300Z,888.0
2022-10-06T08:30:00.297Z,888.0
2022-10-06T08:31:00.461Z,888.0
2022-10-06T08:32:00.489Z,887.9
2022-10-06T08:33:00.317Z,887.9
2022-10-06T08:34:00.283Z,887.9
2022-10-06T08:35:00.297Z,888.0
2022-10-06T08:36:00.316Z,888.0
2022-10-06T08:37:19.389Z,887.9
2022-10-06T08:38:00.444Z,887.9
2022-10-06T08:39:00.287Z,888.0
2022-10-06T08:40:00.315Z,888.0
2022-10-06T08:41:00.303Z,888.0
2022-10-06T08:42:00.312Z,887.9
2022-10-06T08:43:00.308Z,887.9
2022-10-06T08:44:00.444Z,887.8
2022-10-06T08:45:00.356Z,887.8
2022-10-06T08:46:00.510Z,887.8
2022-10-06T08:47:00.303Z,887.8
2022-10-06T08:48:00.292Z,887.8
2022-10-06T08:49:00.299Z,887.8
2022-10-06T08:50:00.466Z,887.8
2022-10-06T08:51:00.289Z,887.8
2022-10-06T08:52:00.305Z,887.8
2022-10-06T08:53:00.301Z,887.8
2022-10-06T08:54:00.302Z,887.8
2022-10-06T08:55:00.295Z,887.8
2022-10-06T08:56:00.520Z,887.7
2022-10-06T08:57:00.351Z,887.7
2022-10-06T08:58:00.341Z,887.7
2022-10-06T08:59:00.377Z,887.7
2022-10-06T09:00:00.409Z,887.7
2022-10-06T09:01:00.609Z,887.7
2022-10-06T09:02:00.497Z,887.6
2022-10-06T09:03:00.360Z,887.6
2022-10-06T09:04:00.384Z,887.6
2022-10-06T09:05:00.386Z,887.6
2022-10-06T09:06:00.328Z,887.6
2022-10-06T09:07:00.350Z,887.6
2022-10-06T09:08:00.538Z,887.5
2022-10-06T09:09:00.362Z,887.5
2022-10-06T09:10:00.381Z,887.5
2022-10-06T09:11:00.327Z,887.5
2022-10-06T09:12:00.280Z,887.5
2022-10-06T09:13:00.308Z,887.5
2022-10-06T09:14:00.529Z,887.4
2022-10-06T09:15:00.306Z,887.4
2022-10-06T09:16:00.462Z,887.4
2022-10-06T09:17:00.409Z,887.4
2022-10-06T09:18:00.315Z,887.4
2022-10-06T09:19:09.057Z,887.4
2022-10-06T09:20:00.590Z,887.4
2022-10-06T09:21:00.302Z,887.3
2022-10-06T09:22:00.319Z,887.4
2022-10-06T09:23:00.400Z,887.3
2022-10-06T09:24:00.306Z,887.3
2022-10-06T09:25:00.289Z,887.3
2022-10-06T09:26:00.422Z,887.3
2022-10-06T09:27:00.288Z,887.3
2022-10-06T09:28:00.371Z,887.3
2022-10-06T09:29:00.354Z,887.3
2022-10-06T09:30:00.311Z,887.3
2022-10-06T09:31:00.346Z,887.3
2022-10-06T09:32:00.434Z,887.3
2022-10-06T09:33:00.650Z,887.3
2022-10-06T09:34:00.299Z,887.3
2022-10-06T09:35:00.317Z,887.3
2022-10-06T09:36:00.277Z,887.2
2022-10-06T09:37:01.609Z,887.2
2022-10-06T09:38:04.386Z,887.2
2022-10-06T09:39:00.313Z,887.2
2022-10-06T09:40:00.316Z,887.2
2022-10-06T09:41:00.340Z,887.2
2022-10-06T09:42:00.327Z,887.2
2022-10-06T09:43:00.294Z,887.2
2022-10-06T09:44:00.425Z,887.1
2022-10-06T09:45:00.629Z,887.1
2022-10-06T09:46:00.328Z,887.2
2022-10-06T09:47:00.307Z,887.1
2022-10-06T09:48:00.511Z,887.1
2022-10-06T09:49:00.459Z,887.1
2022-10-06T09:50:00.531Z,887.1
2022-10-06T09:51:00.292Z,887.1
2022-10-06T09:52:00.307Z,887.1
2022-10-06T09:53:00.285Z,887.1
2022-10-06T09:54:00.362Z,887.1
2022-10-06T09:55:00.350Z,887.1
2022-10-06T09:56:00.495Z,887.1
2022-10-06T09:57:00.386Z,887.0
2022-10-06T09:58:00.326Z,887.1
2022-10-06T09:59:00.290Z,887.0
2022-10-06T10:00:00.417Z,887.0
2022-10-06T10:01:00.441Z,887.0
2022-10-06T10:02:00.571Z,887.0
2022-10-06T10:03:00.427Z,887.0
2022-10-06T10:04:20.564Z,887.0
2022-10-06T10:05:00.397Z,886.9
2022-10-06T10:06:00.335Z,887.0
2022-10-06T10:07:00.373Z,886.9
2022-10-06T10:08:00.539Z,886.9
2022-10-06T10:09:00.284Z,886.9
2022-10-06T10:10:00.295Z,886.9
2022-10-06T10:11:00.311Z,886.8
2022-10-06T10:12:00.446Z,886.9
2022-10-06T10:13:00.282Z,886.8
2022-10-06T10:14:00.678Z,886.8
2022-10-06T10:15:00.298Z,886.9
2022-10-06T10:16:00.383Z,886.8
2022-10-06T10:17:00.283Z,886.7
2022-10-06T10:18:00.282Z,886.7
2022-10-06T10:19:00.635Z,886.7
2022-10-06T10:20:00.876Z,886.7
2022-10-06T10:21:00.317Z,886.7
2022-10-06T10:22:00.314Z,886.7
2022-10-06T10:23:00.309Z,886.6
2022-10-06T10:24:00.286Z,886.6
2022-10-06T10:25:00.319Z,886.6
2022-10-06T10:26:00.438Z,886.6
2022-10-06T10:27:00.342Z,886.6
2022-10-06T10:28:00.343Z,886.6
2022-10-06T10:29:00.329Z,886.6
2022-10-06T10:30:00.308Z,886.6
2022-10-06T10:31:00.333Z,886.5
2022-10-06T10:32:00.439Z,886.6
2022-10-06T10:33:00.287Z,886.6
2022-10-06T10:34:12.487Z,886.6
2022-10-06T10:35:00.665Z,886.5
2022-10-06T10:36:00.297Z,886.5
2022-10-06T10:37:00.313Z,886.5
2022-10-06T10:38:00.437Z,886.5
2022-10-06T10:39:00.330Z,886.5
2022-10-06T10:40:00.296Z,886.4
2022-10-06T10:41:00.296Z,886.4
2022-10-06T10:42:00.310Z,886.4
2022-10-06T10:43:00.290Z,886.4
2022-10-06T10:44:04.022Z,886.4
2022-10-06T10:45:00.544Z,886.4
2022-10-06T10:46:00.322Z,886.4
2022-10-06T10:47:00.409Z,886.4
2022-10-06T10:48:00.292Z,886.4
2022-10-06T10:49:00.328Z,886.4
2022-10-06T10:50:00.441Z,886.4
2022-10-06T10:51:00.429Z,886.4
2022-10-06T10:52:00.298Z,886.4
2022-10-06T10:53:00.300Z,886.3
2022-10-06T10:54:00.296Z,886.3
2022-10-06T10:55:00.593Z,886.3
2022-10-06T10:56:00.383Z,886.3
2022-10-06T10:57:00.365Z,886.3
2022-10-06T10:58:00.343Z,886.3
2022-10-06T10:59:00.369Z,886.3
2022-10-06T11:00:00.377Z,886.2
2022-10-06T11:01:00.348Z,886.2
2022-10-06T11:02:00.584Z,886.2
2022-10-06T11:03:00.312Z,886.2
2022-10-06T11:04:00.347Z,886.2
2022-10-06T11:05:00.728Z,886.2
2022-10-06T11:06:00.572Z,886.2
2022-10-06T11:07:00.449Z,886.2
2022-10-06T11:08:00.516Z,886.2
2022-10-06T11:09:00.291Z,886.2
2022-10-06T11:10:00.368Z,886.2
2022-10-06T11:11:00.325Z,886.2
2022-10-06T11:12:00.446Z,886.2
2022-10-06T11:13:00.310Z,886.2
2022-10-06T11:14:00.749Z,886.2
2022-10-06T11:15:00.739Z,886.2
2022-10-06T11:16:00.361Z,886.2
2022-10-06T11:17:00.307Z,886.2
2022-10-06T11:18:00.289Z,886.1
2022-10-06T11:19:00.310Z,886.2
2022-10-06T11:20:00.526Z,886.1
2022-10-06T11:21:00.309Z,886.2
2022-10-06T11:22:00.509Z,886.2
2022-10-06T11:23:00.372Z,886.2
2022-10-06T11:24:00.297Z,886.2
2022-10-06T11:25:00.727Z,886.1
2022-10-06T11:26:00.445Z,886.1
2022-10-06T11:27:00.293Z,886.1
2022-10-06T11:28:00.350Z,886.1
2022-10-06T11:29:00.309Z,886.1
2022-10-06T11:30:00.773Z,886.1
2022-10-06T11:31:00.291Z,886.1
2022-10-06T11:32:00.510Z,886.1
2022-10-06T11:33:00.322Z,886.1
2022-10-06T11:34:00.328Z,886.1
2022-10-06T11:35:00.311Z,886.1
2022-10-06T11:36:00.326Z,886.1
2022-10-06T11:37:00.302Z,886.1
2022-10-06T11:38:00.500Z,886.1
2022-10-06T11:39:00.319Z,886.1
2022-10-06T11:40:00.861Z,886.1
2022-10-06T11:41:00.449Z,886.1
2022-10-06T11:42:00.384Z,886.0
2022-10-06T11:43:00.311Z,886.0
2022-10-06T11:44:00.682Z,886.0
2022-10-06T11:45:00.744Z,886.1
2022-10-06T11:46:00.398Z,886.0
2022-10-06T11:47:00.320Z,886.0
2022-10-06T11:48:00.312Z,886.0
2022-10-06T11:49:00.317Z,886.0
2022-10-06T11:50:00.417Z,886.0
2022-10-06T11:51:00.284Z,886.0
2022-10-06T11:52:02.483Z,886.0
2022-10-06T11:53:00.443Z,886.0
2022-10-06T11:54:00.279Z,886.0
2022-10-06T11:55:00.697Z,886.0
2022-10-06T11:56:00.434Z,886.0
2022-10-06T11:57:00.331Z,886.0
2022-10-06T11:58:05.343Z,886.0
2022-10-06T11:59:00.374Z,886.0
2022-10-06T12:00:00.307Z,886.0
2022-10-06T12:01:00.296Z,886.0
2022-10-06T12:02:00.615Z,886.0
2022-10-06T12:03:00.389Z,885.9
2022-10-06T12:04:00.294Z,886.0
2022-10-06T12:05:00.813Z,886.0
2022-10-06T12:06:00.281Z,885.9
2022-10-06T12:07:00.304Z,885.9
2022-10-06T12:08:00.413Z,885.9
2022-10-06T12:09:00.327Z,885.9
2022-10-06T12:10:00.360Z,885.9
2022-10-06T12:11:00.357Z,885.9
2022-10-06T12:12:00.432Z,885.8
2022-10-06T12:13:06.858Z,885.8
2022-10-06T12:15:23.057Z,885.8
2022-10-06T12:17:05.534Z,885.8
2022-10-06T12:17:16.852Z,885.8
2022-10-06T12:18:00.302Z,885.8
2022-10-06T12:19:00.307Z,885.8
2022-10-06T12:20:00.516Z,885.8
2022-10-06T12:21:00.337Z,885.8
2022-10-06T12:22:00.288Z,885.8
2022-10-06T12:23:00.391Z,885.8
2022-10-06T12:24:00.387Z,885.8
2022-10-06T12:25:00.805Z,885.8
2022-10-06T12:26:00.691Z,885.8
2022-10-06T12:27:00.322Z,885.8
2022-10-06T12:28:00.357Z,885.8
2022-10-06T12:29:00.299Z,885.8
2022-10-06T12:30:00.936Z,885.8
2022-10-06T12:31:00.335Z,885.8
2022-10-06T12:32:00.425Z,885.8
2022-10-06T12:33:00.300Z,885.8
2022-10-06T12:34:00.333Z,885.8
2022-10-06T12:35:00.782Z,885.8
2022-10-06T12:36:00.308Z,885.8
2022-10-06T12:37:00.301Z,885.8
2022-10-06T12:38:00.429Z,885.8
2022-10-06T12:39:00.816Z,885.8
2022-10-06T12:40:00.296Z,885.8
2022-10-06T12:41:00.301Z,885.8
2022-10-06T12:42:00.312Z,885.8
2022-10-06T12:43:00.291Z,885.8
2022-10-06T12:44:00.442Z,885.8
2022-10-06T12:45:01.030Z,885.8
2022-10-06T12:46:00.341Z,885.8
2022-10-06T12:47:00.297Z,885.8
2022-10-06T12:48:00.309Z,885.8
2022-10-06T12:49:00.307Z,885.8
2022-10-06T12:50:00.452Z,885.8
2022-10-06T12:51:00.311Z,885.8
2022-10-06T12:52:02.596Z,885.8
2022-10-06T12:53:00.281Z,885.8